Chestnut Ridge, New York
Current Conditions -  °F | °C
As of 7:51 PM on Thursday 27 Nov 2014 (Local Time) from KTEB Reporting Station
Overcast Overcast  
Wind Chill: 30°   Ceiling: 4400
Heat Index: 36°   Visibility: 10mi
Dew Point: 27°   Wind: 7mph
Humidity: 70%   Direction: 300°WNW
Pressure: 30.04"   Gusts: NA
Location:  41.0618°N, 74.0139°W
Report Text: KTEB 280051Z 30006KT 10SM OVC044 02/M03 A3004 RMK AO2 SLP173 T00221028 $
Loading
Personal Weather Stations






























Interactive Weather Map New forecast layout! Learn more

10-Day Weather Forecast

Advertisements
Track Severe Weather on mobile